Time;durP1;ratioP1;P1;durP2;ratioP2;P2;SDS_P1;SDS_P2;PMS_P1;PMS_P2;Temp;Humidity;BMP_temperature;BMP_pressure;BME280_temperature;BME280_humidity;BME280_pressure;Samples;Min_cycle;Max_cycle;Signal;HPM_P1;HPM_P2
2022/02/15 00:02:21;;;;;;;4.63;1.60;;;17.60;58.20;;;;;;5028432;28;20036;-61
2022/02/15 00:04:47;;;;;;;3.78;1.42;;;17.60;58.20;;;;;;5026804;28;20045;-61
2022/02/15 00:07:13;;;;;;;4.70;1.40;;;17.60;58.20;;;;;;5027020;28;20021;-60
2022/02/15 00:09:38;;;;;;;4.65;1.50;;;17.60;58.10;;;;;;5024890;28;20045;-61
2022/02/15 00:12:05;;;;;;;4.90;1.50;;;17.60;58.10;;;;;;5026899;28;20033;-61
2022/02/15 00:14:31;;;;;;;4.95;1.70;;;17.60;58.20;;;;;;5029304;28;20036;-60
2022/02/15 00:16:57;;;;;;;4.72;1.60;;;17.50;58.10;;;;;;5025236;28;20055;-61
2022/02/15 00:19:22;;;;;;;5.35;1.67;;;17.50;58.20;;;;;;5026360;28;20485;-60
2022/02/15 00:21:48;;;;;;;5.10;1.52;;;17.50;58.10;;;;;;5025496;28;20032;-59
2022/02/15 00:24:13;;;;;;;6.05;1.70;;;17.50;58.20;;;;;;5026962;28;20024;-61
2022/02/15 00:26:39;;;;;;;5.05;1.60;;;17.50;58.10;;;;;;5029080;28;20032;-61
2022/02/15 00:29:05;;;;;;;3.97;1.75;;;17.50;58.10;;;;;;5027898;28;20048;-61
2022/02/15 00:31:30;;;;;;;7.05;1.70;;;17.40;58.10;;;;;;5027995;28;20045;-61
2022/02/15 00:33:56;;;;;;;4.07;1.58;;;17.40;58.00;;;;;;5028630;28;20075;-60
2022/02/15 00:36:22;;;;;;;3.33;1.42;;;17.40;58.30;;;;;;5030589;28;20406;-61
2022/02/15 00:38:47;;;;;;;6.13;1.70;;;17.40;58.10;;;;;;5017891;28;20030;-61
2022/02/15 00:41:13;;;;;;;4.25;1.60;;;17.40;58.20;;;;;;5029929;28;20551;-60
2022/02/15 00:43:39;;;;;;;7.43;1.73;;;17.40;58.10;;;;;;5030210;28;20030;-61
2022/02/15 00:46:04;;;;;;;5.35;1.60;;;17.40;58.20;;;;;;5030219;28;20021;-60
2022/02/15 00:48:30;;;;;;;6.68;1.50;;;17.40;58.30;;;;;;5029897;28;20100;-60
2022/02/15 00:50:56;;;;;;;4.25;1.45;;;17.30;58.20;;;;;;5031419;28;20461;-61
2022/02/15 00:53:21;;;;;;;6.88;1.73;;;17.30;58.20;;;;;;5031514;28;20018;-60
2022/02/15 00:55:47;;;;;;;5.65;1.50;;;17.30;58.20;;;;;;5022245;28;20069;-61
2022/02/15 00:58:13;;;;;;;5.05;1.40;;;17.30;58.20;;;;;;5021793;28;20025;-60
2022/02/15 01:00:38;;;;;;;5.10;1.70;;;17.20;58.10;;;;;;5028458;28;20034;-61
2022/02/15 01:03:04;;;;;;;4.80;1.73;;;17.30;58.20;;;;;;5029786;28;20033;-61
2022/02/15 01:05:30;;;;;;;3.70;1.30;;;17.20;58.10;;;;;;5032289;28;20094;-61
2022/02/15 01:07:55;;;;;;;5.30;1.80;;;17.20;58.20;;;;;;5029799;28;20037;-61
2022/02/15 01:10:22;;;;;;;5.22;1.60;;;17.20;58.20;;;;;;5028225;28;20045;-61
2022/02/15 01:12:48;;;;;;;4.82;1.58;;;17.20;58.20;;;;;;5027243;28;20102;-61
2022/02/15 01:15:17;;;;;;;3.72;1.30;;;17.20;58.20;;;;;;5029799;28;20104;-60
2022/02/15 01:17:43;;;;;;;7.03;2.08;;;17.20;58.30;;;;;;5031937;28;20397;-61
2022/02/15 01:20:09;;;;;;;3.60;1.35;;;17.20;58.20;;;;;;5029498;28;20686;-61
2022/02/15 01:22:35;;;;;;;4.65;1.52;;;17.20;58.20;;;;;;5029420;28;20040;-61
2022/02/15 01:25:01;;;;;;;4.18;1.55;;;17.10;58.20;;;;;;5029446;28;20025;-61
2022/02/15 01:27:27;;;;;;;2.55;1.17;;;17.10;58.20;;;;;;5029625;28;20029;-61
2022/02/15 01:29:53;;;;;;;3.63;1.40;;;17.10;58.10;;;;;;5030617;28;20124;-60
2022/02/15 01:32:18;;;;;;;4.00;1.60;;;17.10;58.20;;;;;;5029980;28;20116;-61
2022/02/15 01:34:44;;;;;;;4.47;1.60;;;17.10;58.10;;;;;;5027760;28;20021;-61
2022/02/15 01:37:10;;;;;;;4.93;1.52;;;17.10;58.20;;;;;;5028233;28;20750;-59
2022/02/15 01:39:35;;;;;;;3.90;1.52;;;17.10;58.20;;;;;;5027474;28;20920;-61
2022/02/15 01:42:01;;;;;;;3.78;1.40;;;17.00;58.10;;;;;;5029897;28;20029;-61
2022/02/15 01:44:27;;;;;;;6.50;1.67;;;17.00;58.10;;;;;;5031306;28;20017;-61
2022/02/15 01:46:54;;;;;;;4.05;1.60;;;17.00;58.10;;;;;;5028795;28;20504;-61
2022/02/15 01:49:20;;;;;;;4.32;1.60;;;17.00;58.10;;;;;;5027392;28;20595;-60
2022/02/15 01:51:45;;;;;;;3.30;1.30;;;17.00;58.10;;;;;;5027718;28;20030;-61
2022/02/15 01:54:11;;;;;;;5.50;1.80;;;17.00;58.10;;;;;;5029175;28;20487;-60
2022/02/15 01:56:37;;;;;;;4.13;1.33;;;17.00;58.10;;;;;;5031229;28;20053;-60
2022/02/15 01:59:02;;;;;;;4.97;1.40;;;17.00;58.10;;;;;;5060742;28;20021;-61
2022/02/15 02:01:28;;;;;;;5.07;1.60;;;16.90;58.00;;;;;;5028391;28;20033;-61
2022/02/15 02:03:54;;;;;;;5.72;1.27;;;16.90;58.00;;;;;;5028656;28;20120;-60
2022/02/15 02:06:19;;;;;;;3.67;1.23;;;16.90;58.10;;;;;;5020574;28;20553;-61
2022/02/15 02:08:47;;;;;;;4.97;1.58;;;16.90;58.10;;;;;;5031202;28;20490;-61
2022/02/15 02:11:12;;;;;;;4.55;1.35;;;16.90;58.10;;;;;;5028533;28;20128;-61
2022/02/15 02:13:38;;;;;;;4.65;1.60;;;16.90;58.10;;;;;;5027317;28;20105;-61
2022/02/15 02:16:04;;;;;;;3.00;1.23;;;16.90;58.10;;;;;;5028365;28;20113;-60
2022/02/15 02:18:30;;;;;;;4.13;1.33;;;16.80;58.10;;;;;;5027265;28;20036;-60
2022/02/15 02:21:00;;;;;;;5.15;1.35;;;16.80;58.20;;;;;;5023481;28;20665;-61
2022/02/15 02:23:25;;;;;;;3.60;1.30;;;16.80;58.10;;;;;;5030173;28;20025;-60
2022/02/15 02:25:51;;;;;;;3.42;1.45;;;16.90;58.20;;;;;;5028338;28;20099;-61
2022/02/15 02:28:17;;;;;;;4.63;1.65;;;16.80;58.10;;;;;;5026766;28;20033;-61
2022/02/15 02:30:43;;;;;;;3.33;1.20;;;16.80;58.20;;;;;;5058132;28;20069;-60
2022/02/15 02:33:08;;;;;;;5.60;1.50;;;16.80;58.20;;;;;;5028468;28;20572;-61
2022/02/15 02:35:35;;;;;;;4.40;1.75;;;16.80;58.20;;;;;;5030854;28;20026;-61
2022/02/15 02:38:01;;;;;;;3.92;1.20;;;16.70;59.20;;;;;;5028150;28;20025;-60
2022/02/15 02:40:26;;;;;;;5.13;1.27;;;16.80;58.30;;;;;;5028118;28;20497;-61
2022/02/15 02:42:52;;;;;;;4.55;1.50;;;16.80;58.30;;;;;;5028182;28;20036;-60
2022/02/15 02:45:20;;;;;;;3.75;1.35;;;16.70;58.20;;;;;;5010891;28;20028;-60
2022/02/15 02:47:47;;;;;;;5.22;1.30;;;16.70;58.20;;;;;;5026442;28;20103;-61
2022/02/15 02:50:13;;;;;;;3.55;1.40;;;16.70;58.20;;;;;;5027686;28;20033;-60
2022/02/15 02:52:39;;;;;;;4.38;1.17;;;16.70;58.30;;;;;;5023752;28;20033;-61
2022/02/15 02:55:05;;;;;;;4.40;1.48;;;16.70;58.30;;;;;;5026277;28;20033;-61
2022/02/15 02:57:32;;;;;;;4.97;1.52;;;16.70;58.30;;;;;;5026527;28;20135;-61
2022/02/15 02:59:57;;;;;;;2.67;1.30;;;16.70;58.30;;;;;;5028566;28;20117;-61
2022/02/15 03:02:23;;;;;;;4.00;1.20;;;16.60;58.30;;;;;;5029349;28;20100;-60
2022/02/15 03:04:49;;;;;;;3.05;1.13;;;16.60;58.30;;;;;;5027752;28;20029;-61
2022/02/15 03:07:14;;;;;;;4.82;1.40;;;16.60;58.50;;;;;;5026295;28;20447;-61
2022/02/15 03:09:40;;;;;;;4.22;1.40;;;16.60;58.40;;;;;;5018869;28;20039;-61
2022/02/15 03:12:06;;;;;;;4.97;1.33;;;16.60;58.40;;;;;;5027534;28;20035;-61
2022/02/15 03:14:32;;;;;;;3.63;1.20;;;16.60;58.50;;;;;;5029733;28;20029;-60
2022/02/15 03:16:58;;;;;;;3.38;1.15;;;16.60;58.40;;;;;;5027392;28;20029;-61
2022/02/15 03:19:23;;;;;;;4.60;1.30;;;16.60;58.50;;;;;;5027369;28;20036;-61
2022/02/15 03:21:49;;;;;;;4.03;1.10;;;16.60;58.50;;;;;;5027442;28;20033;-60
2022/02/15 03:24:15;;;;;;;2.65;0.90;;;16.60;58.50;;;;;;5027492;28;20030;-61
2022/02/15 03:26:42;;;;;;;4.40;1.33;;;16.50;58.50;;;;;;5028946;28;20022;-60
2022/02/15 03:29:10;;;;;;;4.15;1.38;;;16.50;58.40;;;;;;5026999;28;20018;-61
2022/02/15 03:31:39;;;;;;;4.25;1.13;;;16.50;58.40;;;;;;5025810;28;20053;-61
2022/02/15 03:34:05;;;;;;;3.83;1.30;;;16.50;58.50;;;;;;5027273;28;20009;-61
2022/02/15 03:36:31;;;;;;;3.85;1.30;;;16.50;58.50;;;;;;5025887;28;20495;-60
2022/02/15 03:38:56;;;;;;;4.22;1.20;;;16.50;58.50;;;;;;5028514;28;20026;-61
2022/02/15 03:44:06;;;;;;;3.63;1.30;;;16.50;58.60;;;;;;5027174;28;20074;-61
2022/02/15 03:46:32;;;;;;;3.63;1.10;;;16.40;58.40;;;;;;5025727;28;20034;-60
2022/02/15 03:48:58;;;;;;;4.18;1.02;;;16.40;58.40;;;;;;5025678;28;20021;-60
2022/02/15 03:51:23;;;;;;;2.90;1.23;;;16.40;58.40;;;;;;5027175;28;20042;-61
2022/02/15 03:53:49;;;;;;;3.88;1.10;;;16.40;58.40;;;;;;5021164;28;20025;-61
2022/02/15 03:56:14;;;;;;;4.82;1.33;;;16.40;58.50;;;;;;5027095;28;20033;-60
2022/02/15 03:58:40;;;;;;;4.05;1.23;;;16.40;58.40;;;;;;5058839;28;20026;-60
2022/02/15 04:01:06;;;;;;;3.85;1.20;;;16.40;58.50;;;;;;5021311;28;20041;-60
2022/02/15 04:03:36;;;;;;;4.18;1.13;;;16.40;58.50;;;;;;5028906;28;20021;-60
2022/02/15 04:06:08;;;;;;;4.95;1.23;;;16.30;58.50;;;;;;5031315;28;20029;-60
2022/02/15 04:08:34;;;;;;;4.53;1.20;;;16.40;58.50;;;;;;5031630;28;20104;-60
2022/02/15 04:11:04;;;;;;;2.58;1.08;;;16.40;58.50;;;;;;5028760;28;20120;-60
2022/02/15 04:13:31;;;;;;;2.88;1.02;;;16.30;58.50;;;;;;5030565;28;20025;-60
2022/02/15 04:15:57;;;;;;;3.08;0.98;;;16.30;58.50;;;;;;5029318;28;20033;-60
2022/02/15 04:18:22;;;;;;;3.42;1.10;;;16.30;58.50;;;;;;5028608;28;20018;-60
2022/02/15 04:20:48;;;;;;;2.40;1.23;;;16.30;58.50;;;;;;5033152;28;20040;-60
2022/02/15 04:23:14;;;;;;;4.32;1.15;;;16.30;58.60;;;;;;5031486;28;20022;-60
2022/02/15 04:25:39;;;;;;;4.93;1.25;;;16.30;58.40;;;;;;5028799;28;20136;-60
2022/02/15 04:28:05;;;;;;;4.57;1.30;;;16.30;58.50;;;;;;5029044;28;20029;-60
2022/02/15 04:30:31;;;;;;;3.70;1.20;;;16.30;58.40;;;;;;5030309;28;20045;-60
2022/02/15 04:32:56;;;;;;;4.05;1.23;;;16.30;58.50;;;;;;5038011;28;20366;-60
2022/02/15 04:35:22;;;;;;;2.78;1.10;;;16.40;58.70;;;;;;5019438;28;20057;-60
2022/02/15 04:37:47;;;;;;;4.32;1.40;;;16.40;59.40;;;;;;5026156;28;20033;-60
2022/02/15 04:40:13;;;;;;;2.85;0.90;;;16.30;59.40;;;;;;5029582;28;20658;-60
2022/02/15 04:42:39;;;;;;;6.10;1.30;;;16.30;59.40;;;;;;5031772;28;20087;-60
2022/02/15 04:45:05;;;;;;;4.40;1.20;;;16.30;60.20;;;;;;5030643;28;20028;-60
2022/02/15 04:47:30;;;;;;;4.60;1.30;;;16.30;60.10;;;;;;5029383;28;20116;-60
2022/02/15 04:49:56;;;;;;;6.15;1.48;;;16.30;60.70;;;;;;5028601;28;20079;-60
2022/02/15 04:52:22;;;;;;;5.28;1.20;;;16.40;61.10;;;;;;5030011;28;20038;-61
2022/02/15 04:54:47;;;;;;;3.95;1.10;;;16.30;61.50;;;;;;5028324;28;20535;-60
2022/02/15 04:57:13;;;;;;;6.80;1.70;;;16.30;61.00;;;;;;5029680;28;20036;-60
2022/02/15 04:59:38;;;;;;;3.20;1.08;;;16.30;61.00;;;;;;5025102;28;20084;-60
2022/02/15 05:02:04;;;;;;;5.75;1.17;;;16.30;60.90;;;;;;5028302;28;20034;-61
2022/02/15 05:04:48;;;;;;;6.18;1.50;;;16.40;61.10;;;;;;5027475;28;20468;-59
2022/02/15 05:07:14;;;;;;;3.95;1.20;;;16.30;61.10;;;;;;5029914;28;20416;-61
2022/02/15 05:09:40;;;;;;;3.92;1.30;;;16.30;61.30;;;;;;5029593;28;20060;-60
2022/02/15 05:12:06;;;;;;;4.72;1.10;;;16.30;61.20;;;;;;5029732;28;20038;-60
2022/02/15 05:14:31;;;;;;;3.85;1.10;;;16.30;61.10;;;;;;5031508;28;20033;-60
2022/02/15 05:16:57;;;;;;;5.82;1.23;;;16.30;61.20;;;;;;5026887;28;20037;-60
2022/02/15 05:19:22;;;;;;;4.72;1.10;;;16.30;61.10;;;;;;5022352;28;20029;-60
2022/02/15 05:21:48;;;;;;;4.68;1.10;;;16.30;61.10;;;;;;5029792;28;20037;-59
2022/02/15 05:24:14;;;;;;;5.47;1.20;;;16.30;61.30;;;;;;5029418;28;20071;-61
2022/02/15 05:26:39;;;;;;;5.13;1.27;;;16.30;61.20;;;;;;5031906;28;20029;-61
2022/02/15 05:29:05;;;;;;;3.10;1.25;;;16.30;61.20;;;;;;5027872;28;20103;-61
2022/02/15 05:31:31;;;;;;;3.35;1.00;;;16.30;61.20;;;;;;5029367;28;20117;-60
2022/02/15 05:33:56;;;;;;;3.58;1.30;;;16.30;61.30;;;;;;5027009;28;20079;-60
2022/02/15 05:36:22;;;;;;;5.53;1.20;;;16.30;61.20;;;;;;5029663;28;20040;-61
2022/02/15 05:38:47;;;;;;;3.70;1.40;;;16.30;61.30;;;;;;5031639;28;20034;-60
2022/02/15 05:41:13;;;;;;;4.60;1.23;;;16.20;61.20;;;;;;5029205;28;20025;-60
2022/02/15 05:43:39;;;;;;;4.38;1.20;;;16.30;61.30;;;;;;5026652;28;20029;-60
2022/02/15 05:46:04;;;;;;;3.88;1.13;;;16.20;61.20;;;;;;5027756;28;20049;-60
2022/02/15 05:48:30;;;;;;;4.50;1.35;;;16.20;61.30;;;;;;5031835;28;20026;-60
2022/02/15 05:50:56;;;;;;;5.25;1.33;;;16.20;61.30;;;;;;5030536;28;20041;-60
2022/02/15 05:53:23;;;;;;;5.30;1.30;;;16.20;61.30;;;;;;5029573;28;20025;-60
2022/02/15 05:55:52;;;;;;;2.83;0.93;;;16.20;61.30;;;;;;5028849;28;20029;-60
2022/02/15 05:58:28;;;;;;;3.55;0.90;;;16.20;61.20;;;;;;5027413;28;20028;-60
2022/02/15 06:00:53;;;;;;;4.20;1.02;;;16.20;61.30;;;;;;5028064;28;20615;-61
2022/02/15 06:06:03;;;;;;;2.95;1.00;;;16.20;61.30;;;;;;5028090;28;20413;-61
2022/02/15 06:08:29;;;;;;;4.75;1.30;;;16.20;61.30;;;;;;5030136;28;20022;-61
2022/02/15 06:10:55;;;;;;;3.50;1.20;;;16.20;61.40;;;;;;5027918;28;20068;-61
2022/02/15 06:13:20;;;;;;;6.00;1.40;;;16.20;61.40;;;;;;5027106;28;20021;-61
2022/02/15 06:15:46;;;;;;;6.88;1.58;;;16.20;61.40;;;;;;5027552;28;20018;-60
2022/02/15 06:18:12;;;;;;;7.82;1.80;;;16.20;62.00;;;;;;5027713;28;20030;-60
2022/02/15 06:20:38;;;;;;;7.32;2.00;;;16.10;61.80;;;;;;5026828;28;20414;-60
2022/02/15 06:23:03;;;;;;;5.63;1.30;;;16.20;62.80;;;;;;5026480;28;20466;-60
2022/02/15 06:25:29;;;;;;;7.45;1.70;;;16.10;63.00;;;;;;5026756;28;20033;-61
2022/02/15 06:27:55;;;;;;;6.85;1.52;;;16.20;63.10;;;;;;5028190;28;20091;-61
2022/02/15 06:30:20;;;;;;;5.68;1.55;;;16.20;63.00;;;;;;5060329;28;20038;-61
2022/02/15 06:32:46;;;;;;;7.63;1.67;;;16.20;63.40;;;;;;5028611;28;20098;-60
2022/02/15 06:35:12;;;;;;;5.55;1.52;;;16.20;63.30;;;;;;5027305;28;20036;-60
2022/02/15 06:37:41;;;;;;;5.78;1.40;;;16.10;62.80;;;;;;5025760;28;20086;-61
2022/02/15 06:40:08;;;;;;;7.07;1.67;;;16.20;62.90;;;;;;5027626;28;20021;-60
2022/02/15 06:42:35;;;;;;;6.50;1.30;;;16.10;63.00;;;;;;5028181;28;20032;-60
2022/02/15 06:45:01;;;;;;;3.50;1.25;;;16.10;63.00;;;;;;5028896;28;20029;-61
2022/02/15 06:47:26;;;;;;;6.45;1.55;;;16.10;62.80;;;;;;5027022;28;20095;-60
2022/02/15 06:49:52;;;;;;;4.82;1.38;;;16.10;62.60;;;;;;5027893;28;20025;-60
2022/02/15 06:52:17;;;;;;;7.05;1.58;;;16.10;62.60;;;;;;5025959;28;20041;-61
2022/02/15 06:54:43;;;;;;;5.25;1.50;;;16.10;62.60;;;;;;5026473;28;20067;-61
2022/02/15 06:57:09;;;;;;;5.80;1.60;;;16.10;62.60;;;;;;5026778;28;20107;-59
2022/02/15 06:59:34;;;;;;;6.10;1.45;;;16.10;62.60;;;;;;5030293;28;20508;-60
2022/02/15 07:02:00;;;;;;;4.47;1.20;;;16.10;62.70;;;;;;5026205;28;20063;-60
2022/02/15 07:04:26;;;;;;;4.85;1.38;;;16.10;62.60;;;;;;5026398;28;20349;-61
2022/02/15 07:06:52;;;;;;;7.70;1.95;;;16.10;62.70;;;;;;5027520;28;20592;-60
2022/02/15 07:09:18;;;;;;;6.05;1.50;;;16.10;62.50;;;;;;5027471;28;20120;-60
2022/02/15 07:11:43;;;;;;;7.90;1.63;;;16.10;62.60;;;;;;5030083;28;20482;-60
2022/02/15 07:14:09;;;;;;;5.97;1.65;;;16.00;62.50;;;;;;5023403;28;20033;-60
2022/02/15 07:16:35;;;;;;;4.72;1.42;;;16.00;62.50;;;;;;5027470;28;20390;-60
2022/02/15 07:19:02;;;;;;;7.85;1.60;;;16.00;62.50;;;;;;5027153;28;20029;-60
2022/02/15 07:21:27;;;;;;;5.60;1.35;;;16.00;62.50;;;;;;5027441;28;20513;-60
2022/02/15 07:23:55;;;;;;;7.47;1.67;;;16.00;62.50;;;;;;5028034;28;20025;-61
2022/02/15 07:26:21;;;;;;;5.53;1.40;;;16.00;62.50;;;;;;5027119;28;20476;-61
2022/02/15 07:28:46;;;;;;;5.22;1.60;;;16.00;62.40;;;;;;5027058;28;20057;-60
2022/02/15 07:31:14;;;;;;;6.30;1.60;;;16.00;62.40;;;;;;5021892;28;20046;-59
2022/02/15 07:33:40;;;;;;;5.63;1.38;;;16.00;62.40;;;;;;5026835;28;20041;-61
2022/02/15 07:36:05;;;;;;;5.55;1.65;;;16.00;62.50;;;;;;5027453;28;20440;-61
2022/02/15 07:38:31;;;;;;;4.55;1.30;;;16.00;62.40;;;;;;5027148;28;20069;-60
2022/02/15 07:40:56;;;;;;;6.93;1.30;;;16.00;62.30;;;;;;5025588;28;20025;-61
2022/02/15 07:43:24;;;;;;;3.58;1.00;;;15.90;62.40;;;;;;5025900;28;20115;-61
2022/02/15 07:45:51;;;;;;;3.88;1.52;;;16.00;62.40;;;;;;5027134;28;20025;-60
2022/02/15 07:48:16;;;;;;;5.85;1.48;;;15.90;62.30;;;;;;5024343;28;20486;-61
2022/02/15 07:50:42;;;;;;;4.97;1.35;;;15.90;62.30;;;;;;5029431;28;20041;-61
2022/02/15 07:53:08;;;;;;;4.60;1.40;;;15.90;62.30;;;;;;5025613;28;20033;-61
2022/02/15 07:55:33;;;;;;;4.22;1.23;;;15.90;62.30;;;;;;5059057;28;20017;-61
2022/02/15 07:57:59;;;;;;;4.47;1.27;;;15.90;62.30;;;;;;5026810;28;20375;-60
2022/02/15 08:00:25;;;;;;;5.90;1.55;;;15.90;62.40;;;;;;5027097;28;20382;-61
2022/02/15 08:02:51;;;;;;;4.93;1.40;;;15.90;62.30;;;;;;5028912;28;20579;-61
2022/02/15 08:05:18;;;;;;;6.10;1.30;;;15.90;62.30;;;;;;5027508;28;20104;-60
2022/02/15 08:07:53;;;;;;;5.50;1.30;;;15.90;62.30;;;;;;5027088;28;20564;-61
2022/02/15 08:10:19;;;;;;;4.93;1.30;;;15.90;62.40;;;;;;5025321;28;20049;-60
2022/02/15 08:12:53;;;;;;;6.22;1.30;;;15.90;62.30;;;;;;5027066;28;20021;-61
2022/02/15 08:15:19;;;;;;;5.73;1.17;;;15.90;62.30;;;;;;5014029;28;20109;-60
2022/02/15 08:17:45;;;;;;;3.25;1.25;;;15.90;62.40;;;;;;5031029;28;20459;-60
2022/02/15 08:20:11;;;;;;;4.82;1.30;;;15.90;62.30;;;;;;5025346;28;20037;-60
2022/02/15 08:22:37;;;;;;;4.88;1.50;;;15.90;62.30;;;;;;5025163;28;20053;-61
2022/02/15 08:25:03;;;;;;;3.17;1.00;;;15.80;62.30;;;;;;5026860;28;20489;-61
2022/02/15 08:27:28;;;;;;;4.68;1.30;;;15.80;62.30;;;;;;5026850;28;20505;-61
2022/02/15 08:29:54;;;;;;;6.30;1.50;;;15.80;62.20;;;;;;5028239;28;20076;-60
2022/02/15 08:32:20;;;;;;;4.18;1.15;;;15.80;62.30;;;;;;5025827;28;20502;-61
2022/02/15 08:34:46;;;;;;;4.88;1.33;;;15.80;62.20;;;;;;5024687;28;20525;-61
2022/02/15 08:37:11;;;;;;;3.63;1.15;;;15.80;62.20;;;;;;5026692;28;20037;-60
2022/02/15 08:39:37;;;;;;;3.88;1.27;;;15.80;62.20;;;;;;5026676;28;20021;-61
2022/02/15 08:42:04;;;;;;;6.20;1.15;;;15.80;62.20;;;;;;5027488;28;20041;-61
2022/02/15 08:44:34;;;;;;;5.47;1.50;;;15.80;62.20;;;;;;5026826;28;20390;-61
2022/02/15 08:47:00;;;;;;;4.40;1.10;;;15.80;62.20;;;;;;5026044;28;20064;-61
2022/02/15 08:49:27;;;;;;;4.10;1.20;;;15.80;62.20;;;;;;5023994;28;20013;-61
2022/02/15 08:51:53;;;;;;;3.80;1.20;;;15.80;62.20;;;;;;5030129;28;20073;-60
2022/02/15 08:54:19;;;;;;;4.20;1.25;;;15.80;62.20;;;;;;5030177;28;20018;-60
2022/02/15 08:56:44;;;;;;;4.07;1.35;;;15.80;62.20;;;;;;5032615;28;20052;-60
2022/02/15 08:59:10;;;;;;;5.72;1.15;;;15.80;62.20;;;;;;5030042;28;20044;-60
2022/02/15 09:01:35;;;;;;;4.68;1.05;;;15.80;62.20;;;;;;5028352;28;20076;-61
2022/02/15 09:04:01;;;;;;;5.13;1.02;;;15.80;62.30;;;;;;5029969;28;20448;-60
2022/02/15 09:06:27;;;;;;;4.65;1.23;;;15.80;62.20;;;;;;5030091;28;20025;-61
2022/02/15 09:08:52;;;;;;;3.60;1.10;;;15.70;63.20;;;;;;5031739;28;20056;-61
2022/02/15 09:11:18;;;;;;;4.05;1.10;;;15.80;62.20;;;;;;5028696;28;20060;-60
2022/02/15 09:13:44;;;;;;;5.05;1.23;;;15.70;62.10;;;;;;5028261;28;20390;-61
2022/02/15 09:16:10;;;;;;;5.38;1.15;;;15.80;62.20;;;;;;5029365;28;20024;-60
2022/02/15 09:18:36;;;;;;;4.30;1.20;;;15.70;62.10;;;;;;5026755;28;20038;-60
2022/02/15 09:21:02;;;;;;;5.13;1.10;;;15.70;62.10;;;;;;5030818;28;20040;-61
2022/02/15 09:23:28;;;;;;;2.88;1.13;;;15.70;62.10;;;;;;5029816;28;20021;-61
2022/02/15 09:25:56;;;;;;;4.30;1.15;;;15.70;62.10;;;;;;5029611;28;20042;-60
2022/02/15 09:28:22;;;;;;;5.45;1.20;;;15.70;62.10;;;;;;5028113;28;20037;-61
2022/02/15 09:30:54;;;;;;;6.20;1.30;;;15.70;62.10;;;;;;5029027;28;20068;-60
2022/02/15 09:33:20;;;;;;;6.65;1.40;;;15.70;62.10;;;;;;5013449;28;20026;-61
2022/02/15 09:35:46;;;;;;;3.83;1.30;;;15.70;62.10;;;;;;5030909;28;20048;-61
2022/02/15 09:38:11;;;;;;;5.80;1.20;;;15.70;62.10;;;;;;5027892;28;20076;-61
2022/02/15 09:40:38;;;;;;;4.65;1.30;;;15.70;62.10;;;;;;5027577;28;20061;-61
2022/02/15 09:43:05;;;;;;;3.58;1.00;;;15.70;62.10;;;;;;5029087;28;20061;-60
2022/02/15 09:45:30;;;;;;;5.18;1.10;;;15.70;62.20;;;;;;5060888;28;20056;-61
2022/02/15 09:47:56;;;;;;;3.78;1.17;;;15.70;62.10;;;;;;5029481;28;20084;-61
2022/02/15 09:50:22;;;;;;;3.85;1.13;;;15.70;62.10;;;;;;5034807;28;20026;-60
2022/02/15 09:52:48;;;;;;;3.67;1.00;;;15.70;62.10;;;;;;5057155;28;20033;-61
2022/02/15 09:55:13;;;;;;;4.53;1.10;;;15.70;62.20;;;;;;5028934;28;20505;-60
2022/02/15 09:57:39;;;;;;;3.85;0.98;;;15.70;62.10;;;;;;5028999;28;20025;-60
2022/02/15 10:00:05;;;;;;;3.35;0.93;;;15.70;62.10;;;;;;5029492;28;20021;-60
2022/02/15 10:02:35;;;;;;;3.25;1.10;;;15.70;62.10;;;;;;5028972;28;20026;-60
2022/02/15 10:05:01;;;;;;;4.15;1.10;;;15.70;62.10;;;;;;5028711;28;20041;-60
2022/02/15 10:07:27;;;;;;;4.00;1.00;;;15.70;62.10;;;;;;5027277;28;20569;-61
2022/02/15 10:09:54;;;;;;;4.43;1.00;;;15.70;62.10;;;;;;5028599;28;20116;-60
2022/02/15 10:12:20;;;;;;;4.10;1.10;;;15.70;62.10;;;;;;5013015;28;20124;-61
2022/02/15 10:14:47;;;;;;;5.18;1.23;;;15.70;62.10;;;;;;5031012;28;20539;-61
2022/02/15 10:17:15;;;;;;;2.42;1.00;;;15.70;62.00;;;;;;5027147;28;20033;-61
2022/02/15 10:19:41;;;;;;;3.38;0.98;;;15.70;62.20;;;;;;5026159;28;20036;-61
2022/02/15 10:22:07;;;;;;;5.88;1.45;;;15.70;62.10;;;;;;5060362;28;20060;-61
2022/02/15 10:24:34;;;;;;;3.22;1.10;;;15.70;62.10;;;;;;5028789;28;20021;-60
2022/02/15 10:27:04;;;;;;;3.63;1.10;;;15.70;62.10;;;;;;5029425;28;20033;-61
2022/02/15 10:29:36;;;;;;;5.78;1.38;;;15.70;62.10;;;;;;5028652;28;20034;-61
2022/02/15 10:32:03;;;;;;;4.70;1.17;;;15.70;62.10;;;;;;5024927;28;20521;-60
2022/02/15 10:34:29;;;;;;;15.23;5.35;;;15.70;62.10;;;;;;5027911;28;20052;-60
2022/02/15 10:37:01;;;;;;;22.45;20.05;;;15.70;62.40;;;;;;5027995;28;20486;-61
2022/02/15 10:39:42;;;;;;;23.33;20.92;;;16.00;62.80;;;;;;5024916;28;20018;-61
2022/02/15 10:42:18;;;;;;;24.30;20.17;;;16.20;62.20;;;;;;5025143;28;20442;-61
2022/02/15 10:44:50;;;;;;;21.85;18.23;;;16.40;61.90;;;;;;5028021;28;20034;-61
2022/02/15 10:47:16;;;;;;;19.63;15.30;;;16.50;61.80;;;;;;5023688;28;20406;-61
2022/02/15 10:49:42;;;;;;;17.70;15.07;;;16.60;61.80;;;;;;5027098;28;20083;-61
2022/02/15 10:52:09;;;;;;;19.80;14.55;;;16.70;61.80;;;;;;5026802;28;20044;-60
2022/02/15 10:54:36;;;;;;;16.48;13.48;;;16.70;61.80;;;;;;5027540;28;20036;-61
2022/02/15 10:57:02;;;;;;;16.25;12.98;;;16.80;61.70;;;;;;5025387;28;20040;-62
2022/02/15 10:59:28;;;;;;;18.23;12.48;;;16.80;61.90;;;;;;5028681;28;20053;-62
2022/02/15 11:01:54;;;;;;;17.40;11.80;;;16.90;61.90;;;;;;5028977;28;20524;-61
2022/02/15 11:04:19;;;;;;;17.73;12.27;;;16.90;61.60;;;;;;5027320;28;20045;-62
2022/02/15 11:06:45;;;;;;;14.45;10.93;;;16.90;61.50;;;;;;5027356;28;20030;-61
2022/02/15 11:09:12;;;;;;;15.25;11.75;;;16.90;61.90;;;;;;5028576;28;20079;-61
2022/02/15 11:12:16;;;;;;;14.43;10.57;;;16.90;61.30;;;;;;5025843;28;20045;-62
2022/02/15 11:14:42;;;;;;;15.52;10.52;;;17.00;61.60;;;;;;5028750;28;20044;-62
2022/02/15 11:17:15;;;;;;;16.98;10.85;;;17.10;61.30;;;;;;5026661;28;20022;-62
2022/02/15 11:19:42;;;;;;;13.15;9.65;;;17.10;61.10;;;;;;5025390;28;20025;-62
2022/02/15 11:22:20;;;;;;;15.73;9.98;;;17.10;61.10;;;;;;5026864;28;20425;-62
2022/02/15 11:24:46;;;;;;;11.32;8.75;;;17.20;61.00;;;;;;5014758;28;20049;-62
2022/02/15 11:27:16;;;;;;;13.05;9.05;;;17.20;60.90;;;;;;5027482;28;20398;-61
2022/02/15 11:29:52;;;;;;;13.93;8.98;;;17.30;60.70;;;;;;5028880;28;20502;-62
2022/02/15 11:32:26;;;;;;;13.27;8.57;;;17.30;60.80;;;;;;5026910;28;20060;-62
2022/02/15 11:34:53;;;;;;;12.20;8.40;;;17.40;60.50;;;;;;5026768;28;20046;-62
2022/02/15 11:37:22;;;;;;;12.75;7.88;;;17.40;60.60;;;;;;5025284;28;20021;-62
2022/02/15 11:40:07;;;;;;;11.20;8.10;;;17.50;60.70;;;;;;5027238;28;20030;-62
2022/02/15 11:42:47;;;;;;;12.25;8.32;;;17.60;60.10;;;;;;5021665;28;20017;-62
2022/02/15 11:45:25;;;;;;;13.55;7.65;;;17.60;60.10;;;;;;5027374;28;20057;-61
2022/02/15 11:47:51;;;;;;;13.13;7.80;;;17.60;60.10;;;;;;5025973;28;20030;-61
2022/02/15 11:50:17;;;;;;;12.77;7.20;;;17.70;60.10;;;;;;5025755;28;20068;-62
2022/02/15 11:52:44;;;;;;;11.75;6.85;;;17.80;60.20;;;;;;5026856;28;20725;-62
2022/02/15 11:55:16;;;;;;;11.98;7.20;;;17.80;59.90;;;;;;5026109;28;20030;-62
2022/02/15 11:57:42;;;;;;;11.13;6.82;;;17.90;59.80;;;;;;5025683;28;20045;-62
2022/02/15 12:00:09;;;;;;;12.05;6.60;;;17.90;59.70;;;;;;5026625;28;20038;-62
2022/02/15 12:02:34;;;;;;;10.85;6.32;;;18.00;59.70;;;;;;5027804;28;20018;-61
2022/02/15 12:05:02;;;;;;;13.15;6.88;;;18.10;59.50;;;;;;5029214;28;20029;-62
2022/02/15 12:07:28;;;;;;;9.88;5.95;;;18.10;59.30;;;;;;5033846;28;20525;-62
2022/02/15 12:09:55;;;;;;;11.63;6.18;;;18.20;59.30;;;;;;5025173;28;20107;-63
2022/02/15 12:12:21;;;;;;;11.15;6.28;;;18.30;59.10;;;;;;5025003;28;20513;-62
2022/02/15 12:14:56;;;;;;;10.35;5.60;;;18.30;58.90;;;;;;5032170;28;20112;-62
2022/02/15 12:17:25;;;;;;;10.73;5.57;;;18.40;58.90;;;;;;5034836;28;20029;-63
2022/02/15 12:19:57;;;;;;;10.25;6.30;;;18.40;58.80;;;;;;5027833;28;20022;-62
2022/02/15 12:22:23;;;;;;;10.23;5.68;;;18.50;59.00;;;;;;5026516;28;20505;-63
2022/02/15 12:24:52;;;;;;;9.90;6.03;;;18.50;58.70;;;;;;5040799;28;20367;-62
2022/02/15 12:27:18;;;;;;;10.20;6.40;;;18.60;58.60;;;;;;5029379;28;20061;-62
2022/02/15 12:29:52;;;;;;;9.65;5.80;;;18.60;58.50;;;;;;5040138;28;20060;-63
2022/02/15 12:32:29;;;;;;;11.43;5.90;;;18.70;58.30;;;;;;5031147;28;20049;-62
2022/02/15 12:34:55;;;;;;;9.95;5.50;;;18.70;58.20;;;;;;5030559;28;20041;-63
2022/02/15 12:37:25;;;;;;;9.48;5.57;;;18.70;58.10;;;;;;5030761;28;20386;-62
2022/02/15 12:39:52;;;;;;;9.40;5.43;;;18.70;58.10;;;;;;5029811;28;20018;-62
2022/02/15 12:42:18;;;;;;;9.18;5.90;;;18.80;58.10;;;;;;5013363;28;20026;-62
2022/02/15 12:44:58;;;;;;;9.05;5.50;;;18.80;58.00;;;;;;5032070;28;20104;-62
2022/02/15 12:47:25;;;;;;;10.18;5.93;;;18.90;57.90;;;;;;5034993;28;20029;-62
2022/02/15 12:50:00;;;;;;;9.93;5.53;;;18.90;57.80;;;;;;5029974;28;20464;-62